sensor_id;sensor_type;location;lat;lon;timestamp;pressure;altitude;pressure_sealevel;temperature;humidity
829;BME280;396;52.558;13.188;2023-07-13T00:02:20;100774.66;;;18.30;85.54
829;BME280;396;52.558;13.188;2023-07-13T00:04:46;100775.44;;;18.31;85.41
829;BME280;396;52.558;13.188;2023-07-13T00:07:13;100776.91;;;18.40;84.97
829;BME280;396;52.558;13.188;2023-07-13T00:09:40;100774.16;;;18.40;84.12
829;BME280;396;52.558;13.188;2023-07-13T00:12:23;100764.13;;;18.32;84.30
829;BME280;396;52.558;13.188;2023-07-13T00:14:50;100763.69;;;18.30;84.24
829;BME280;396;52.558;13.188;2023-07-13T00:17:16;100773.50;;;18.31;83.93
829;BME280;396;52.558;13.188;2023-07-13T00:19:44;100776.50;;;18.26;85.03
829;BME280;396;52.558;13.188;2023-07-13T00:22:12;100773.75;;;18.26;84.69
829;BME280;396;52.558;13.188;2023-07-13T00:24:38;100773.66;;;18.23;85.80
829;BME280;396;52.558;13.188;2023-07-13T00:27:07;100773.66;;;18.23;85.69
829;BME280;396;52.558;13.188;2023-07-13T00:29:34;100780.91;;;18.15;85.99
829;BME280;396;52.558;13.188;2023-07-13T00:32:02;100778.03;;;18.11;85.67
829;BME280;396;52.558;13.188;2023-07-13T00:34:28;100775.31;;;18.11;85.92
829;BME280;396;52.558;13.188;2023-07-13T00:36:57;100772.88;;;18.10;85.84
829;BME280;396;52.558;13.188;2023-07-13T00:39:23;100776.22;;;18.03;86.13
829;BME280;396;52.558;13.188;2023-07-13T00:41:51;100769.59;;;18.04;86.64
829;BME280;396;52.558;13.188;2023-07-13T00:44:19;100770.19;;;17.98;86.78
829;BME280;396;52.558;13.188;2023-07-13T00:46:46;100768.50;;;17.93;88.00
829;BME280;396;52.558;13.188;2023-07-13T00:49:15;100769.06;;;17.86;87.95
829;BME280;396;52.558;13.188;2023-07-13T00:51:46;100767.59;;;17.89;87.82
829;BME280;396;52.558;13.188;2023-07-13T00:54:27;100764.75;;;17.85;87.38
829;BME280;396;52.558;13.188;2023-07-13T00:56:57;100772.59;;;17.87;86.76
829;BME280;396;52.558;13.188;2023-07-13T00:59:25;100752.06;;;17.81;86.83
829;BME280;396;52.558;13.188;2023-07-13T01:01:53;100764.97;;;17.68;87.65
829;BME280;396;52.558;13.188;2023-07-13T01:04:20;100773.41;;;17.63;87.42
829;BME280;396;52.558;13.188;2023-07-13T01:06:49;100776.41;;;17.58;88.05
829;BME280;396;52.558;13.188;2023-07-13T01:09:17;100775.56;;;17.57;87.46
829;BME280;396;52.558;13.188;2023-07-13T01:11:44;100779.25;;;17.49;89.10
829;BME280;396;52.558;13.188;2023-07-13T01:14:11;100779.81;;;17.43;89.69
829;BME280;396;52.558;13.188;2023-07-13T01:16:39;100765.19;;;17.38;90.01
829;BME280;396;52.558;13.188;2023-07-13T01:19:13;100780.50;;;17.52;89.07
829;BME280;396;52.558;13.188;2023-07-13T01:21:49;100775.94;;;17.56;88.74
829;BME280;396;52.558;13.188;2023-07-13T01:24:16;100774.78;;;17.57;88.46
829;BME280;396;52.558;13.188;2023-07-13T01:26:43;100772.38;;;17.55;88.77
829;BME280;396;52.558;13.188;2023-07-13T01:29:09;100778.91;;;17.51;89.58
829;BME280;396;52.558;13.188;2023-07-13T01:31:36;100774.56;;;17.50;88.97
829;BME280;396;52.558;13.188;2023-07-13T01:34:03;100785.63;;;17.41;89.74
829;BME280;396;52.558;13.188;2023-07-13T01:36:30;100787.69;;;17.32;89.66
829;BME280;396;52.558;13.188;2023-07-13T01:38:58;100787.34;;;17.33;89.91
829;BME280;396;52.558;13.188;2023-07-13T01:41:24;100797.03;;;17.31;89.86
829;BME280;396;52.558;13.188;2023-07-13T01:43:51;100781.88;;;17.33;89.54
829;BME280;396;52.558;13.188;2023-07-13T01:46:17;100791.78;;;17.26;89.74
829;BME280;396;52.558;13.188;2023-07-13T01:48:44;100788.34;;;17.17;90.63
829;BME280;396;52.558;13.188;2023-07-13T01:51:11;100780.84;;;17.13;89.02
829;BME280;396;52.558;13.188;2023-07-13T01:53:37;100775.00;;;17.15;85.09
829;BME280;396;52.558;13.188;2023-07-13T01:56:05;100776.13;;;17.02;85.69
829;BME280;396;52.558;13.188;2023-07-13T01:58:32;100775.47;;;17.05;87.67
829;BME280;396;52.558;13.188;2023-07-13T02:00:58;100777.50;;;16.96;90.05
829;BME280;396;52.558;13.188;2023-07-13T02:03:25;100777.03;;;16.94;90.51
829;BME280;396;52.558;13.188;2023-07-13T02:05:52;100772.03;;;16.96;89.99
829;BME280;396;52.558;13.188;2023-07-13T02:08:18;100770.63;;;16.89;90.38
829;BME280;396;52.558;13.188;2023-07-13T02:10:45;100785.09;;;16.78;91.58
829;BME280;396;52.558;13.188;2023-07-13T02:13:13;100784.19;;;16.74;91.84
829;BME280;396;52.558;13.188;2023-07-13T02:15:40;100784.50;;;16.72;92.11
829;BME280;396;52.558;13.188;2023-07-13T02:18:07;100784.75;;;16.79;91.38
829;BME280;396;52.558;13.188;2023-07-13T02:20:33;100786.22;;;16.77;91.34
829;BME280;396;52.558;13.188;2023-07-13T02:23:00;100789.81;;;16.69;91.82
829;BME280;396;52.558;13.188;2023-07-13T02:25:27;100785.59;;;16.71;92.00
829;BME280;396;52.558;13.188;2023-07-13T02:27:53;100797.50;;;16.75;91.77
829;BME280;396;52.558;13.188;2023-07-13T02:30:22;100785.19;;;16.81;90.94
829;BME280;396;52.558;13.188;2023-07-13T02:32:50;100786.56;;;16.75;90.15
829;BME280;396;52.558;13.188;2023-07-13T02:35:18;100781.44;;;16.74;90.66
829;BME280;396;52.558;13.188;2023-07-13T02:37:44;100783.81;;;16.75;90.14
829;BME280;396;52.558;13.188;2023-07-13T02:40:11;100779.41;;;16.62;91.02
829;BME280;396;52.558;13.188;2023-07-13T02:42:38;100772.09;;;16.54;91.86
829;BME280;396;52.558;13.188;2023-07-13T02:45:05;100757.38;;;16.46;92.73
829;BME280;396;52.558;13.188;2023-07-13T02:47:34;100764.72;;;16.33;93.39
829;BME280;396;52.558;13.188;2023-07-13T02:50:01;100771.13;;;16.37;93.58
829;BME280;396;52.558;13.188;2023-07-13T02:52:27;100781.19;;;16.46;92.82
829;BME280;396;52.558;13.188;2023-07-13T02:54:54;100781.97;;;16.46;92.18
829;BME280;396;52.558;13.188;2023-07-13T02:57:21;100780.03;;;16.47;91.62
829;BME280;396;52.558;13.188;2023-07-13T02:59:47;100777.59;;;16.33;92.67
829;BME280;396;52.558;13.188;2023-07-13T03:02:15;100786.69;;;16.25;93.55
829;BME280;396;52.558;13.188;2023-07-13T03:04:43;100799.53;;;16.24;95.35
829;BME280;396;52.558;13.188;2023-07-13T03:07:10;100804.94;;;16.33;95.50
829;BME280;396;52.558;13.188;2023-07-13T03:09:36;100817.88;;;16.24;95.67
829;BME280;396;52.558;13.188;2023-07-13T03:12:03;100806.53;;;16.13;95.96
829;BME280;396;52.558;13.188;2023-07-13T03:14:30;100808.94;;;16.14;96.56
829;BME280;396;52.558;13.188;2023-07-13T03:16:57;100821.16;;;16.17;97.80
829;BME280;396;52.558;13.188;2023-07-13T03:19:23;100822.09;;;16.21;97.30
829;BME280;396;52.558;13.188;2023-07-13T03:21:51;100826.72;;;16.00;98.46
829;BME280;396;52.558;13.188;2023-07-13T03:24:19;100823.56;;;15.89;99.39
829;BME280;396;52.558;13.188;2023-07-13T03:26:46;100827.66;;;16.04;99.96
829;BME280;396;52.558;13.188;2023-07-13T03:29:12;100817.63;;;16.17;99.13
829;BME280;396;52.558;13.188;2023-07-13T03:31:40;100825.88;;;16.08;99.65
829;BME280;396;52.558;13.188;2023-07-13T03:34:06;100826.13;;;16.15;98.42
829;BME280;396;52.558;13.188;2023-07-13T03:36:33;100826.94;;;16.15;99.22
829;BME280;396;52.558;13.188;2023-07-13T03:39:02;100834.13;;;16.20;98.00
829;BME280;396;52.558;13.188;2023-07-13T03:41:29;100829.13;;;16.22;98.84
829;BME280;396;52.558;13.188;2023-07-13T03:43:57;100829.59;;;16.24;99.29
829;BME280;396;52.558;13.188;2023-07-13T03:46:23;100824.94;;;16.25;98.83
829;BME280;396;52.558;13.188;2023-07-13T03:48:50;100835.59;;;16.18;99.57
829;BME280;396;52.558;13.188;2023-07-13T03:51:17;100825.66;;;16.13;100.00
829;BME280;396;52.558;13.188;2023-07-13T03:53:45;100827.25;;;16.14;100.00
829;BME280;396;52.558;13.188;2023-07-13T03:56:15;100831.88;;;16.22;99.89
829;BME280;396;52.558;13.188;2023-07-13T03:58:44;100839.06;;;16.27;100.00
829;BME280;396;52.558;13.188;2023-07-13T04:01:12;100833.47;;;16.23;100.00
829;BME280;396;52.558;13.188;2023-07-13T04:03:40;100834.69;;;16.34;100.00
829;BME280;396;52.558;13.188;2023-07-13T04:06:08;100838.16;;;16.44;100.00
829;BME280;396;52.558;13.188;2023-07-13T04:08:36;100839.53;;;16.50;100.00
829;BME280;396;52.558;13.188;2023-07-13T04:11:04;100838.38;;;16.51;100.00
829;BME280;396;52.558;13.188;2023-07-13T04:13:32;100841.59;;;16.53;100.00
829;BME280;396;52.558;13.188;2023-07-13T04:16:00;100841.84;;;16.60;100.00
829;BME280;396;52.558;13.188;2023-07-13T04:18:26;100838.44;;;16.63;100.00
829;BME280;396;52.558;13.188;2023-07-13T04:20:53;100847.00;;;16.61;100.00
829;BME280;396;52.558;13.188;2023-07-13T04:23:20;100842.59;;;16.69;100.00
829;BME280;396;52.558;13.188;2023-07-13T04:25:47;100848.81;;;16.78;100.00
829;BME280;396;52.558;13.188;2023-07-13T04:28:15;100854.28;;;16.78;100.00
829;BME280;396;52.558;13.188;2023-07-13T04:33:13;100852.06;;;16.93;100.00
829;BME280;396;52.558;13.188;2023-07-13T04:35:42;100850.03;;;17.02;100.00
829;BME280;396;52.558;13.188;2023-07-13T04:38:09;100859.81;;;17.03;100.00
829;BME280;396;52.558;13.188;2023-07-13T04:40:36;100867.03;;;17.07;100.00
829;BME280;396;52.558;13.188;2023-07-13T04:43:03;100874.69;;;17.14;100.00
829;BME280;396;52.558;13.188;2023-07-13T04:45:29;100877.88;;;17.16;99.97
829;BME280;396;52.558;13.188;2023-07-13T04:47:58;100867.41;;;17.18;99.55
829;BME280;396;52.558;13.188;2023-07-13T04:50:25;100870.84;;;17.27;99.59
829;BME280;396;52.558;13.188;2023-07-13T04:52:52;100876.56;;;17.34;100.00
829;BME280;396;52.558;13.188;2023-07-13T04:55:19;100877.59;;;17.42;100.00
829;BME280;396;52.558;13.188;2023-07-13T04:57:47;100869.38;;;17.42;100.00
829;BME280;396;52.558;13.188;2023-07-13T05:00:14;100871.47;;;17.45;99.07
829;BME280;396;52.558;13.188;2023-07-13T05:02:44;100869.28;;;17.51;98.02
829;BME280;396;52.558;13.188;2023-07-13T05:05:12;100864.50;;;17.60;97.24
829;BME280;396;52.558;13.188;2023-07-13T05:07:39;100870.66;;;17.57;95.99
829;BME280;396;52.558;13.188;2023-07-13T05:10:07;100874.56;;;17.68;95.21
829;BME280;396;52.558;13.188;2023-07-13T05:12:34;100872.88;;;17.76;95.51
829;BME280;396;52.558;13.188;2023-07-13T05:15:01;100865.78;;;17.87;96.53
829;BME280;396;52.558;13.188;2023-07-13T05:17:28;100867.59;;;17.95;96.73
829;BME280;396;52.558;13.188;2023-07-13T05:19:54;100869.78;;;18.02;97.40
829;BME280;396;52.558;13.188;2023-07-13T05:22:23;100870.78;;;18.09;96.35
829;BME280;396;52.558;13.188;2023-07-13T05:24:49;100882.53;;;18.22;94.75
829;BME280;396;52.558;13.188;2023-07-13T05:27:16;100878.53;;;18.32;91.95
829;BME280;396;52.558;13.188;2023-07-13T05:29:43;100881.59;;;18.43;91.28
829;BME280;396;52.558;13.188;2023-07-13T05:32:09;100887.28;;;18.50;90.68
829;BME280;396;52.558;13.188;2023-07-13T05:34:36;100891.16;;;18.61;90.63
829;BME280;396;52.558;13.188;2023-07-13T05:37:03;100883.25;;;18.72;89.39
829;BME280;396;52.558;13.188;2023-07-13T05:39:31;100892.91;;;18.81;90.46
829;BME280;396;52.558;13.188;2023-07-13T05:41:57;100882.84;;;18.85;89.98
829;BME280;396;52.558;13.188;2023-07-13T05:44:24;100887.75;;;18.92;88.30
829;BME280;396;52.558;13.188;2023-07-13T05:46:51;100898.41;;;19.09;85.45
829;BME280;396;52.558;13.188;2023-07-13T05:49:17;100894.09;;;19.24;85.65
829;BME280;396;52.558;13.188;2023-07-13T05:51:44;100909.34;;;19.37;85.21
829;BME280;396;52.558;13.188;2023-07-13T05:54:11;100904.75;;;19.41;84.82
829;BME280;396;52.558;13.188;2023-07-13T05:56:39;100912.91;;;19.54;84.93
829;BME280;396;52.558;13.188;2023-07-13T05:59:05;100908.97;;;19.67;84.33
829;BME280;396;52.558;13.188;2023-07-13T06:01:32;100912.34;;;19.76;82.45
829;BME280;396;52.558;13.188;2023-07-13T06:03:59;100911.88;;;19.90;79.92
829;BME280;396;52.558;13.188;2023-07-13T06:06:25;100906.47;;;19.94;81.07
829;BME280;396;52.558;13.188;2023-07-13T06:08:52;100902.13;;;19.93;78.70
829;BME280;396;52.558;13.188;2023-07-13T06:11:22;100908.06;;;19.95;78.03
829;BME280;396;52.558;13.188;2023-07-13T06:13:50;100900.97;;;19.94;78.25
829;BME280;396;52.558;13.188;2023-07-13T06:16:18;100904.94;;;19.96;79.00
829;BME280;396;52.558;13.188;2023-07-13T06:18:45;100913.09;;;20.08;77.94
829;BME280;396;52.558;13.188;2023-07-13T06:21:14;100909.78;;;20.19;77.13
829;BME280;396;52.558;13.188;2023-07-13T06:23:41;100907.56;;;20.24;77.33
829;BME280;396;52.558;13.188;2023-07-13T06:26:09;100904.63;;;20.33;76.92
829;BME280;396;52.558;13.188;2023-07-13T06:28:36;100908.16;;;20.33;76.05
829;BME280;396;52.558;13.188;2023-07-13T06:31:08;100919.97;;;20.50;76.34
829;BME280;396;52.558;13.188;2023-07-13T06:33:35;100912.94;;;20.52;75.94
829;BME280;396;52.558;13.188;2023-07-13T06:36:03;100909.25;;;20.64;73.84
829;BME280;396;52.558;13.188;2023-07-13T06:38:30;100901.66;;;20.77;74.56
829;BME280;396;52.558;13.188;2023-07-13T06:40:57;100895.94;;;20.85;74.68
829;BME280;396;52.558;13.188;2023-07-13T06:43:24;100903.97;;;20.94;72.72
829;BME280;396;52.558;13.188;2023-07-13T06:45:51;100900.69;;;21.08;73.11
829;BME280;396;52.558;13.188;2023-07-13T06:48:22;100904.00;;;21.17;71.58
829;BME280;396;52.558;13.188;2023-07-13T06:50:49;100900.88;;;21.19;70.82
829;BME280;396;52.558;13.188;2023-07-13T06:53:17;100896.97;;;21.20;71.98
829;BME280;396;52.558;13.188;2023-07-13T06:55:44;100893.97;;;21.28;72.17
829;BME280;396;52.558;13.188;2023-07-13T06:58:12;100904.44;;;21.38;70.23
829;BME280;396;52.558;13.188;2023-07-13T07:00:39;100908.84;;;21.43;69.95
829;BME280;396;52.558;13.188;2023-07-13T07:03:05;100900.63;;;21.47;70.42
829;BME280;396;52.558;13.188;2023-07-13T07:05:33;100907.78;;;21.51;68.79
829;BME280;396;52.558;13.188;2023-07-13T07:08:00;100909.94;;;21.61;67.64
829;BME280;396;52.558;13.188;2023-07-13T07:10:29;100900.97;;;21.68;66.69
829;BME280;396;52.558;13.188;2023-07-13T07:12:56;100912.00;;;21.68;69.14
829;BME280;396;52.558;13.188;2023-07-13T07:15:23;100910.00;;;21.65;67.43
829;BME280;396;52.558;13.188;2023-07-13T07:17:49;100918.38;;;21.72;66.66
829;BME280;396;52.558;13.188;2023-07-13T07:20:16;100914.91;;;21.75;66.47
829;BME280;396;52.558;13.188;2023-07-13T07:22:44;100917.34;;;21.80;66.72
829;BME280;396;52.558;13.188;2023-07-13T07:25:10;100911.50;;;21.85;67.79
829;BME280;396;52.558;13.188;2023-07-13T07:27:37;100912.75;;;21.88;68.88
829;BME280;396;52.558;13.188;2023-07-13T07:30:05;100923.41;;;21.89;67.14
829;BME280;396;52.558;13.188;2023-07-13T07:32:32;100921.66;;;22.04;67.84
829;BME280;396;52.558;13.188;2023-07-13T07:34:58;100923.44;;;22.16;66.42
829;BME280;396;52.558;13.188;2023-07-13T07:37:25;100922.63;;;22.42;60.95
829;BME280;396;52.558;13.188;2023-07-13T07:39:53;100916.44;;;22.52;61.71
829;BME280;396;52.558;13.188;2023-07-13T07:42:20;100930.75;;;22.58;61.53
829;BME280;396;52.558;13.188;2023-07-13T07:44:46;100924.56;;;22.68;60.20
829;BME280;396;52.558;13.188;2023-07-13T07:47:13;100931.34;;;22.74;60.46
829;BME280;396;52.558;13.188;2023-07-13T07:49:40;100929.06;;;22.83;60.25
829;BME280;396;52.558;13.188;2023-07-13T07:52:07;100923.38;;;22.99;59.94
829;BME280;396;52.558;13.188;2023-07-13T07:54:34;100935.03;;;23.15;59.81
829;BME280;396;52.558;13.188;2023-07-13T07:57:02;100931.56;;;23.26;59.64
829;BME280;396;52.558;13.188;2023-07-13T07:59:29;100937.84;;;23.23;58.39
829;BME280;396;52.558;13.188;2023-07-13T08:01:55;100938.31;;;23.28;58.80
829;BME280;396;52.558;13.188;2023-07-13T08:04:22;100933.16;;;23.27;56.01
829;BME280;396;52.558;13.188;2023-07-13T08:06:49;100932.78;;;23.28;54.19
829;BME280;396;52.558;13.188;2023-07-13T08:09:15;100931.72;;;23.40;53.24
829;BME280;396;52.558;13.188;2023-07-13T08:11:42;100924.56;;;23.35;53.01
829;BME280;396;52.558;13.188;2023-07-13T08:14:10;100932.16;;;23.46;53.38
829;BME280;396;52.558;13.188;2023-07-13T08:16:37;100931.88;;;23.58;54.14
829;BME280;396;52.558;13.188;2023-07-13T08:19:03;100936.19;;;23.52;53.40
829;BME280;396;52.558;13.188;2023-07-13T08:21:31;100942.97;;;23.61;53.58
829;BME280;396;52.558;13.188;2023-07-13T08:23:58;100931.25;;;23.72;53.19
829;BME280;396;52.558;13.188;2023-07-13T08:26:24;100946.75;;;23.83;51.48
829;BME280;396;52.558;13.188;2023-07-13T08:28:51;100944.38;;;23.82;52.54
829;BME280;396;52.558;13.188;2023-07-13T08:31:19;100941.56;;;23.75;53.78
829;BME280;396;52.558;13.188;2023-07-13T08:33:45;100941.50;;;23.71;54.58
829;BME280;396;52.558;13.188;2023-07-13T08:36:12;100941.06;;;23.65;54.74
829;BME280;396;52.558;13.188;2023-07-13T08:38:39;100942.81;;;23.44;52.62
829;BME280;396;52.558;13.188;2023-07-13T08:41:11;100943.50;;;23.33;53.45
829;BME280;396;52.558;13.188;2023-07-13T08:43:39;100937.94;;;23.30;53.00
829;BME280;396;52.558;13.188;2023-07-13T08:46:11;100932.31;;;23.23;53.80
829;BME280;396;52.558;13.188;2023-07-13T08:48:44;100941.06;;;23.28;53.03
829;BME280;396;52.558;13.188;2023-07-13T08:51:22;100945.09;;;23.34;53.09
829;BME280;396;52.558;13.188;2023-07-13T08:53:54;100942.38;;;23.41;53.61
829;BME280;396;52.558;13.188;2023-07-13T08:56:27;100935.56;;;23.32;53.72
829;BME280;396;52.558;13.188;2023-07-13T08:58:57;100941.91;;;23.32;52.20
829;BME280;396;52.558;13.188;2023-07-13T09:01:29;100930.09;;;23.35;52.18
829;BME280;396;52.558;13.188;2023-07-13T09:04:05;100944.34;;;23.37;52.91
829;BME280;396;52.558;13.188;2023-07-13T09:06:42;100929.66;;;23.30;53.03
829;BME280;396;52.558;13.188;2023-07-13T09:09:18;100938.31;;;23.28;53.13
829;BME280;396;52.558;13.188;2023-07-13T09:11:50;100933.72;;;23.43;54.35
829;BME280;396;52.558;13.188;2023-07-13T09:14:33;100931.09;;;23.57;53.46
829;BME280;396;52.558;13.188;2023-07-13T09:17:03;100932.00;;;23.65;53.44
829;BME280;396;52.558;13.188;2023-07-13T09:19:33;100933.66;;;23.73;53.82
829;BME280;396;52.558;13.188;2023-07-13T09:22:03;100931.00;;;23.87;50.84
829;BME280;396;52.558;13.188;2023-07-13T09:24:37;100929.91;;;24.03;52.01
829;BME280;396;52.558;13.188;2023-07-13T09:27:12;100925.25;;;24.14;51.89
829;BME280;396;52.558;13.188;2023-07-13T09:29:46;100932.44;;;24.29;51.93
829;BME280;396;52.558;13.188;2023-07-13T09:32:14;100932.19;;;24.45;52.55
829;BME280;396;52.558;13.188;2023-07-13T09:34:51;100936.59;;;24.53;50.96
829;BME280;396;52.558;13.188;2023-07-13T09:37:20;100936.53;;;24.42;50.79
829;BME280;396;52.558;13.188;2023-07-13T09:39:49;100935.72;;;24.42;50.05
829;BME280;396;52.558;13.188;2023-07-13T09:42:17;100932.25;;;24.56;48.70
829;BME280;396;52.558;13.188;2023-07-13T09:44:52;100941.06;;;24.83;47.61
829;BME280;396;52.558;13.188;2023-07-13T09:47:20;100934.44;;;25.02;46.19
829;BME280;396;52.558;13.188;2023-07-13T09:49:56;100940.34;;;25.00;46.81
829;BME280;396;52.558;13.188;2023-07-13T09:52:24;100945.91;;;25.04;47.13
829;BME280;396;52.558;13.188;2023-07-13T09:54:52;100941.66;;;25.24;47.43
829;BME280;396;52.558;13.188;2023-07-13T09:57:25;100940.00;;;25.09;46.29
829;BME280;396;52.558;13.188;2023-07-13T09:59:54;100950.25;;;25.05;46.58
829;BME280;396;52.558;13.188;2023-07-13T10:02:27;100951.78;;;24.84;45.52
829;BME280;396;52.558;13.188;2023-07-13T10:05:01;100942.59;;;24.66;47.13
829;BME280;396;52.558;13.188;2023-07-13T10:07:29;100944.13;;;24.53;49.06
829;BME280;396;52.558;13.188;2023-07-13T10:09:56;100951.28;;;24.64;49.41
829;BME280;396;52.558;13.188;2023-07-13T10:12:24;100942.63;;;24.73;49.18
829;BME280;396;52.558;13.188;2023-07-13T10:14:52;100948.63;;;24.86;49.39
829;BME280;396;52.558;13.188;2023-07-13T10:17:29;100945.44;;;24.87;48.81
829;BME280;396;52.558;13.188;2023-07-13T10:19:59;100944.25;;;24.92;48.65
829;BME280;396;52.558;13.188;2023-07-13T10:22:37;100942.72;;;24.95;47.59
829;BME280;396;52.558;13.188;2023-07-13T10:25:14;100949.81;;;24.96;48.07
829;BME280;396;52.558;13.188;2023-07-13T10:27:42;100954.19;;;24.89;47.95
829;BME280;396;52.558;13.188;2023-07-13T10:30:13;100956.13;;;24.85;48.15
829;BME280;396;52.558;13.188;2023-07-13T10:32:42;100952.63;;;24.99;49.67
829;BME280;396;52.558;13.188;2023-07-13T10:35:12;100955.44;;;25.06;48.96
829;BME280;396;52.558;13.188;2023-07-13T10:37:45;100959.44;;;25.23;46.51
829;BME280;396;52.558;13.188;2023-07-13T10:40:18;100950.75;;;25.25;45.13
829;BME280;396;52.558;13.188;2023-07-13T10:42:48;100947.22;;;25.38;44.51
829;BME280;396;52.558;13.188;2023-07-13T10:45:18;100945.25;;;25.50;44.52
829;BME280;396;52.558;13.188;2023-07-13T10:47:45;100948.09;;;25.82;43.83
829;BME280;396;52.558;13.188;2023-07-13T10:50:17;100952.84;;;25.99;44.04
829;BME280;396;52.558;13.188;2023-07-13T10:52:47;100945.72;;;25.95;41.04
829;BME280;396;52.558;13.188;2023-07-13T10:55:36;100945.28;;;25.89;40.70
829;BME280;396;52.558;13.188;2023-07-13T10:58:12;100930.63;;;25.85;42.00
829;BME280;396;52.558;13.188;2023-07-13T11:00:50;100937.34;;;26.09;41.51
829;BME280;396;52.558;13.188;2023-07-13T11:03:19;100942.47;;;26.32;41.94
829;BME280;396;52.558;13.188;2023-07-13T11:05:50;100942.09;;;26.48;41.10
829;BME280;396;52.558;13.188;2023-07-13T11:08:32;100950.41;;;26.48;41.17
829;BME280;396;52.558;13.188;2023-07-13T11:11:01;100946.41;;;26.56;40.86
829;BME280;396;52.558;13.188;2023-07-13T11:13:55;100945.97;;;26.64;42.13
829;BME280;396;52.558;13.188;2023-07-13T11:16:41;100950.72;;;26.71;40.50
829;BME280;396;52.558;13.188;2023-07-13T11:19:26;100948.25;;;26.95;40.82
829;BME280;396;52.558;13.188;2023-07-13T11:22:15;100952.22;;;26.97;40.66
829;BME280;396;52.558;13.188;2023-07-13T11:24:54;100963.66;;;27.17;40.33
829;BME280;396;52.558;13.188;2023-07-13T11:27:37;100950.75;;;27.48;38.46
829;BME280;396;52.558;13.188;2023-07-13T11:30:24;100943.19;;;28.01;39.20
829;BME280;396;52.558;13.188;2023-07-13T11:33:02;100954.25;;;28.53;37.69
829;BME280;396;52.558;13.188;2023-07-13T11:35:33;100955.03;;;28.53;37.37
829;BME280;396;52.558;13.188;2023-07-13T11:38:02;100959.16;;;28.76;36.41
829;BME280;396;52.558;13.188;2023-07-13T11:40:34;100964.22;;;28.50;37.46
829;BME280;396;52.558;13.188;2023-07-13T11:43:02;100959.25;;;28.27;38.69
829;BME280;396;52.558;13.188;2023-07-13T11:45:28;100961.63;;;27.84;37.78
829;BME280;396;52.558;13.188;2023-07-13T11:47:55;100961.94;;;27.37;38.45
829;BME280;396;52.558;13.188;2023-07-13T11:50:25;100962.16;;;26.91;39.32
829;BME280;396;52.558;13.188;2023-07-13T11:52:53;100963.91;;;26.46;40.43
829;BME280;396;52.558;13.188;2023-07-13T11:55:23;100958.31;;;26.38;40.87
829;BME280;396;52.558;13.188;2023-07-13T11:57:53;100965.91;;;26.34;41.12
829;BME280;396;52.558;13.188;2023-07-13T12:00:25;100959.44;;;26.77;40.50
829;BME280;396;52.558;13.188;2023-07-13T12:02:56;100946.94;;;27.21;39.04
829;BME280;396;52.558;13.188;2023-07-13T12:05:24;100942.63;;;27.75;39.47
829;BME280;396;52.558;13.188;2023-07-13T12:07:52;100951.13;;;28.02;38.90
829;BME280;396;52.558;13.188;2023-07-13T12:10:23;100946.22;;;28.17;37.29
829;BME280;396;52.558;13.188;2023-07-13T12:12:52;100941.88;;;28.54;38.12
829;BME280;396;52.558;13.188;2023-07-13T12:15:20;100944.19;;;28.93;37.48
829;BME280;396;52.558;13.188;2023-07-13T12:17:48;100950.47;;;29.31;36.47
829;BME280;396;52.558;13.188;2023-07-13T12:20:20;100962.22;;;29.73;34.96
829;BME280;396;52.558;13.188;2023-07-13T12:22:49;100951.63;;;29.61;35.86
829;BME280;396;52.558;13.188;2023-07-13T12:25:17;100959.59;;;29.62;35.76
829;BME280;396;52.558;13.188;2023-07-13T12:27:49;100955.44;;;29.98;35.66
829;BME280;396;52.558;13.188;2023-07-13T12:30:27;100957.28;;;30.51;34.56
829;BME280;396;52.558;13.188;2023-07-13T12:32:57;100946.41;;;30.10;34.87
829;BME280;396;52.558;13.188;2023-07-13T12:35:26;100953.44;;;29.98;36.06
829;BME280;396;52.558;13.188;2023-07-13T12:37:57;100959.91;;;30.38;35.02
829;BME280;396;52.558;13.188;2023-07-13T12:40:27;100944.50;;;30.07;32.51
829;BME280;396;52.558;13.188;2023-07-13T12:42:56;100951.03;;;29.73;33.21
829;BME280;396;52.558;13.188;2023-07-13T12:45:24;100959.50;;;30.17;33.38
829;BME280;396;52.558;13.188;2023-07-13T12:47:54;100945.97;;;30.15;34.51
829;BME280;396;52.558;13.188;2023-07-13T12:50:23;100956.28;;;30.18;33.55
829;BME280;396;52.558;13.188;2023-07-13T12:52:51;100949.72;;;29.54;34.04
829;BME280;396;52.558;13.188;2023-07-13T12:55:20;100949.09;;;29.16;35.92
829;BME280;396;52.558;13.188;2023-07-13T12:57:50;100940.66;;;29.47;35.30
829;BME280;396;52.558;13.188;2023-07-13T13:00:28;100955.59;;;29.63;34.27
829;BME280;396;52.558;13.188;2023-07-13T13:03:02;100943.59;;;29.67;35.03
829;BME280;396;52.558;13.188;2023-07-13T13:05:29;100951.28;;;30.06;34.93
829;BME280;396;52.558;13.188;2023-07-13T13:07:57;100947.16;;;30.57;33.86
829;BME280;396;52.558;13.188;2023-07-13T13:10:24;100950.19;;;30.86;33.99
829;BME280;396;52.558;13.188;2023-07-13T13:12:52;100945.50;;;30.60;33.74
829;BME280;396;52.558;13.188;2023-07-13T13:15:18;100955.59;;;29.87;34.23
829;BME280;396;52.558;13.188;2023-07-13T13:17:48;100952.41;;;29.34;35.03
829;BME280;396;52.558;13.188;2023-07-13T13:20:16;100939.69;;;29.03;35.58
829;BME280;396;52.558;13.188;2023-07-13T13:22:42;100948.97;;;28.92;36.58
829;BME280;396;52.558;13.188;2023-07-13T13:25:10;100943.41;;;28.92;35.90
829;BME280;396;52.558;13.188;2023-07-13T13:27:37;100940.94;;;29.29;35.70
829;BME280;396;52.558;13.188;2023-07-13T13:30:10;100942.75;;;29.93;35.65
829;BME280;396;52.558;13.188;2023-07-13T13:32:38;100956.72;;;29.66;35.09
829;BME280;396;52.558;13.188;2023-07-13T13:35:12;100952.41;;;29.61;35.43